createdAt,value
2019-05-06T00:01:24.259Z,15.08
2019-05-06T00:03:54.187Z,14.35
2019-05-06T00:06:23.656Z,16.07
2019-05-06T00:08:54.590Z,16.48
2019-05-06T00:11:23.850Z,16.52
2019-05-06T00:13:54.307Z,16.65
2019-05-06T00:16:23.782Z,15.43
2019-05-06T00:18:54.138Z,11.30
2019-05-06T00:21:24.422Z,14.50
2019-05-06T00:23:54.602Z,16.20
2019-05-06T00:26:40.937Z,19.30
2019-05-06T00:29:11.098Z,20.80
2019-05-06T00:31:39.528Z,13.30
2019-05-06T00:34:08.027Z,12.55
2019-05-06T00:36:36.700Z,17.98
2019-05-06T00:39:26.996Z,16.95
2019-05-06T00:42:00.073Z,15.28
2019-05-06T00:44:28.494Z,20.23
2019-05-06T00:46:56.954Z,17.70
2019-05-06T00:49:25.435Z,12.45
2019-05-06T00:51:55.048Z,14.60
2019-05-06T00:54:27.781Z,9.73
2019-05-06T00:56:56.644Z,18.98
2019-05-06T00:59:25.075Z,16.93
2019-05-06T01:01:53.980Z,25.35
2019-05-06T01:04:24.511Z,17.32
2019-05-06T01:06:54.491Z,19.32
2019-05-06T01:09:23.960Z,15.23
2019-05-06T01:11:54.606Z,17.85
2019-05-06T01:14:30.953Z,15.00
2019-05-06T01:16:59.520Z,13.85
2019-05-06T01:19:27.955Z,19.12
2019-05-06T01:21:56.401Z,18.98
2019-05-06T01:24:24.845Z,13.05
2019-05-06T01:26:53.745Z,15.00
2019-05-06T01:29:24.052Z,18.37
2019-05-06T01:31:54.455Z,15.40
2019-05-06T01:34:24.517Z,17.95
2019-05-06T01:36:54.568Z,18.40
2019-05-06T01:39:39.659Z,17.67
2019-05-06T01:42:09.728Z,13.70
2019-05-06T01:44:38.166Z,17.55
2019-05-06T01:47:06.838Z,17.80
2019-05-06T01:49:35.249Z,17.27
2019-05-06T01:52:04.333Z,21.45
2019-05-06T01:54:34.354Z,17.95
2019-05-06T01:57:04.446Z,15.45
2019-05-06T01:59:34.072Z,17.35
2019-05-06T02:02:04.242Z,19.70
2019-05-06T02:04:33.791Z,17.65
2019-05-06T02:07:03.762Z,17.87
2019-05-06T02:09:34.230Z,15.55
2019-05-06T02:12:04.557Z,14.60
2019-05-06T02:14:34.115Z,11.50
2019-05-06T02:17:03.655Z,12.58
2019-05-06T02:19:32.203Z,16.48
2019-05-06T02:22:04.326Z,11.65
2019-05-06T02:24:37.422Z,15.32
2019-05-06T02:27:06.608Z,13.43
2019-05-06T02:29:36.671Z,14.00
2019-05-06T02:32:24.416Z,14.63
2019-05-06T02:35:00.824Z,18.15
2019-05-06T02:37:46.044Z,13.00
2019-05-06T02:40:18.975Z,15.00
2019-05-06T02:42:47.991Z,13.85
2019-05-06T02:45:16.680Z,16.93
2019-05-06T02:47:55.980Z,18.02
2019-05-06T02:50:42.732Z,14.15
2019-05-06T02:53:13.375Z,20.40
2019-05-06T02:55:43.069Z,13.48
2019-05-06T02:58:14.587Z,17.30
2019-05-06T03:00:43.021Z,22.85
2019-05-06T03:03:13.986Z,20.23
2019-05-06T03:05:43.945Z,14.33
2019-05-06T03:08:13.429Z,13.85
2019-05-06T03:10:44.125Z,22.25
2019-05-06T03:13:14.297Z,18.52
2019-05-06T03:15:43.594Z,17.87
2019-05-06T03:18:14.722Z,19.73
2019-05-06T03:20:58.358Z,14.65
2019-05-06T03:23:43.372Z,23.20
2019-05-06T03:26:13.738Z,18.52
2019-05-06T03:28:44.043Z,16.60
2019-05-06T03:31:16.118Z,18.70
2019-05-06T03:34:03.845Z,19.00
2019-05-06T03:36:23.579Z,15.55
2019-05-06T03:38:43.254Z,20.77
2019-05-06T03:41:13.871Z,17.95
2019-05-06T03:43:43.523Z,12.00
2019-05-06T03:46:14.280Z,18.70
2019-05-06T03:48:53.600Z,19.82
2019-05-06T03:51:23.302Z,13.70
2019-05-06T03:53:56.316Z,15.80
2019-05-06T03:56:23.989Z,18.83
2019-05-06T03:58:53.728Z,16.05
2019-05-06T04:01:24.128Z,21.87
2019-05-06T04:03:56.954Z,18.73
2019-05-06T04:06:24.211Z,19.67
2019-05-06T04:08:53.683Z,16.65
2019-05-06T04:11:23.824Z,16.77
2019-05-06T04:13:53.837Z,16.80
2019-05-06T04:16:36.172Z,15.53
2019-05-06T04:19:23.807Z,17.20
2019-05-06T04:21:56.757Z,16.97
2019-05-06T04:24:35.458Z,15.95
2019-05-06T04:27:25.263Z,18.85
2019-05-06T04:29:54.509Z,15.10
2019-05-06T04:32:23.859Z,14.20
2019-05-06T04:34:53.574Z,15.98
2019-05-06T04:37:24.223Z,15.40
2019-05-06T04:39:53.529Z,15.88
2019-05-06T04:42:26.328Z,14.20
2019-05-06T04:44:53.346Z,18.87
2019-05-06T04:47:24.191Z,16.32
2019-05-06T04:49:53.083Z,15.32
2019-05-06T04:52:22.807Z,13.88
2019-05-06T04:54:53.404Z,19.73
2019-05-06T04:57:23.828Z,15.88
2019-05-06T04:59:54.186Z,15.50
2019-05-06T05:02:23.135Z,14.38
2019-05-06T05:04:53.216Z,17.57
2019-05-06T05:07:22.492Z,18.95
2019-05-06T05:09:53.634Z,14.10
2019-05-06T05:12:39.169Z,13.90
2019-05-06T05:15:12.431Z,15.00
2019-05-06T05:17:45.497Z,16.30
2019-05-06T05:20:13.999Z,15.68
2019-05-06T05:22:42.500Z,17.42
2019-05-06T05:25:12.276Z,18.48
2019-05-06T05:27:42.104Z,13.25
2019-05-06T05:30:12.434Z,14.43
2019-05-06T05:32:42.791Z,17.05
2019-05-06T05:35:12.753Z,11.05
2019-05-06T05:37:41.992Z,13.58
2019-05-06T05:40:12.999Z,15.32
2019-05-06T05:42:43.477Z,15.18
2019-05-06T05:45:12.916Z,11.50
2019-05-06T05:47:42.519Z,13.28
2019-05-06T05:50:18.597Z,11.85
2019-05-06T05:52:47.054Z,17.45
2019-05-06T05:55:15.476Z,11.50
2019-05-06T05:57:44.089Z,18.57
2019-05-06T06:00:13.054Z,13.65
2019-05-06T06:02:43.658Z,12.45
2019-05-06T06:05:12.498Z,11.95
2019-05-06T06:07:42.224Z,14.80
2019-05-06T06:10:22.589Z,16.20
2019-05-06T06:12:52.868Z,13.70
2019-05-06T06:15:25.977Z,14.87
2019-05-06T06:17:59.531Z,14.43
2019-05-06T06:20:46.068Z,15.10
2019-05-06T06:23:16.264Z,11.35
2019-05-06T06:25:44.708Z,11.88
2019-05-06T06:28:13.125Z,13.85
2019-05-06T06:30:49.125Z,14.93
2019-05-06T06:33:17.839Z,15.20
2019-05-06T06:35:54.155Z,13.22
2019-05-06T06:38:32.262Z,11.88
2019-05-06T06:41:02.553Z,12.85
2019-05-06T06:43:32.425Z,13.45
2019-05-06T06:46:02.509Z,9.48
2019-05-06T06:48:32.033Z,13.58
2019-05-06T06:51:03.278Z,10.75
2019-05-06T06:53:32.723Z,11.78
2019-05-06T06:56:03.196Z,9.63
2019-05-06T06:58:33.255Z,12.75
2019-05-06T07:01:03.385Z,12.75
2019-05-06T07:03:39.942Z,10.35
2019-05-06T07:06:12.749Z,11.65
2019-05-06T07:08:42.620Z,9.78
2019-05-06T07:11:13.061Z,13.15
2019-05-06T07:13:44.525Z,11.50
2019-05-06T07:16:12.958Z,11.68
2019-05-06T07:18:42.732Z,6.67
2019-05-06T07:21:14.008Z,9.90
2019-05-06T07:23:42.681Z,9.98
2019-05-06T07:26:12.804Z,11.70
2019-05-06T07:28:43.648Z,8.10
2019-05-06T07:31:21.907Z,9.98
2019-05-06T07:33:42.863Z,7.05
2019-05-06T07:36:13.079Z,8.98
2019-05-06T07:38:43.405Z,9.65
2019-05-06T07:41:19.793Z,9.10
2019-05-06T07:43:59.037Z,11.60
2019-05-06T07:46:33.099Z,7.50
2019-05-06T07:49:03.333Z,8.45
2019-05-06T07:51:32.592Z,8.60
2019-05-06T07:54:02.793Z,7.58
2019-05-06T07:56:32.206Z,11.12
2019-05-06T07:59:09.536Z,9.15
2019-05-06T08:01:43.844Z,10.28
2019-05-06T08:04:12.829Z,10.78
2019-05-06T08:06:42.737Z,14.38
2019-05-06T08:09:12.994Z,9.73
2019-05-06T08:11:42.241Z,7.65
2019-05-06T08:14:12.956Z,6.87
2019-05-06T08:16:46.491Z,10.18
2019-05-06T08:19:14.916Z,8.23
2019-05-06T08:21:45.018Z,6.65
2019-05-06T08:24:13.440Z,9.78
2019-05-06T08:26:42.830Z,8.20
2019-05-06T08:29:12.176Z,9.60
2019-05-06T08:31:43.064Z,7.42
2019-05-06T08:34:12.281Z,7.80
2019-05-06T08:36:43.260Z,10.35
2019-05-06T08:39:13.089Z,10.82
2019-05-06T08:41:42.306Z,8.50
2019-05-06T08:44:12.755Z,10.38
2019-05-06T08:46:43.242Z,7.50
2019-05-06T08:49:12.285Z,8.20
2019-05-06T08:51:42.800Z,7.83
2019-05-06T08:54:32.487Z,5.42
2019-05-06T08:57:02.561Z,5.40
2019-05-06T08:59:32.114Z,12.03
2019-05-06T09:02:03.244Z,10.28
2019-05-06T09:04:32.127Z,8.15
2019-05-06T09:07:02.729Z,7.78
2019-05-06T09:09:32.554Z,10.63
2019-05-06T09:12:02.653Z,9.03
2019-05-06T09:14:32.635Z,10.45
2019-05-06T09:17:02.914Z,8.35
2019-05-06T09:19:33.172Z,8.25
2019-05-06T09:22:02.528Z,14.65
2019-05-06T09:24:32.084Z,10.35
2019-05-06T09:27:03.113Z,12.13
2019-05-06T09:29:36.161Z,10.88
2019-05-06T09:32:06.230Z,10.63
2019-05-06T09:34:52.673Z,6.92
2019-05-06T09:37:24.067Z,5.30
2019-05-06T09:39:53.483Z,6.10
2019-05-06T09:42:23.321Z,4.70
2019-05-06T09:44:54.212Z,5.05
2019-05-06T09:47:24.005Z,7.12
2019-05-06T09:49:53.263Z,6.37
2019-05-06T09:52:23.119Z,7.33
2019-05-06T09:54:59.739Z,8.35
2019-05-06T09:57:45.932Z,5.10
2019-05-06T10:00:16.989Z,5.78
2019-05-06T10:02:45.432Z,8.18
2019-05-06T10:05:14.015Z,6.80
2019-05-06T10:07:42.530Z,7.58
2019-05-06T10:10:11.278Z,6.53
2019-05-06T10:12:41.957Z,8.45
2019-05-06T10:15:12.717Z,8.95
2019-05-06T10:17:42.902Z,7.83
2019-05-06T10:20:12.770Z,4.22
2019-05-06T10:22:43.094Z,8.23
2019-05-06T10:25:13.428Z,5.25
2019-05-06T10:27:43.816Z,6.17
2019-05-06T10:30:14.561Z,8.95
2019-05-06T10:32:47.306Z,5.42
2019-05-06T10:35:16.327Z,4.90
2019-05-06T10:37:59.831Z,7.78
2019-05-06T10:40:48.613Z,8.58
2019-05-06T10:43:29.033Z,6.00
2019-05-06T10:46:00.885Z,5.62
2019-05-06T10:48:27.906Z,6.53
2019-05-06T10:51:04.433Z,13.60
2019-05-06T10:53:33.077Z,9.00
2019-05-06T10:56:03.222Z,6.60
2019-05-06T10:58:32.656Z,8.83
2019-05-06T11:01:12.570Z,12.10
2019-05-06T11:03:42.005Z,8.40
2019-05-06T11:06:12.970Z,10.93
2019-05-06T11:08:42.070Z,9.50
2019-05-06T11:11:17.049Z,9.25
2019-05-06T11:13:43.829Z,5.80
2019-05-06T11:16:12.981Z,8.45
2019-05-06T11:18:42.641Z,11.50
2019-05-06T11:21:12.724Z,7.50
2019-05-06T11:23:41.884Z,7.60
2019-05-06T11:26:10.439Z,8.33
2019-05-06T11:28:42.592Z,8.50
2019-05-06T11:31:29.244Z,6.50
2019-05-06T11:34:12.611Z,13.40
2019-05-06T11:36:52.520Z,6.45
2019-05-06T11:39:23.334Z,7.03
2019-05-06T11:42:06.284Z,6.45
2019-05-06T11:44:23.973Z,8.05
2019-05-06T11:46:52.370Z,9.33
2019-05-06T11:49:23.251Z,5.87
2019-05-06T11:51:51.645Z,13.53
2019-05-06T11:54:23.649Z,7.95
2019-05-06T11:56:54.336Z,11.30
2019-05-06T11:59:22.801Z,14.95
2019-05-06T12:01:53.541Z,10.70
2019-05-06T12:04:23.013Z,11.95
2019-05-06T12:06:57.275Z,9.93
2019-05-06T12:09:22.407Z,9.23
2019-05-06T12:11:52.826Z,8.83
2019-05-06T12:14:22.661Z,10.35
2019-05-06T12:16:54.809Z,8.38
2019-05-06T12:19:22.523Z,9.18
2019-05-06T12:21:51.385Z,9.98
2019-05-06T12:24:19.886Z,14.00
2019-05-06T12:26:48.308Z,11.10
2019-05-06T12:29:16.939Z,10.00
2019-05-06T12:31:47.057Z,10.75
2019-05-06T12:34:15.743Z,10.95
2019-05-06T12:36:47.404Z,14.80
2019-05-06T12:39:19.655Z,11.55
2019-05-06T12:42:04.843Z,5.42
2019-05-06T12:44:34.993Z,7.08
2019-05-06T12:47:13.405Z,12.18
2019-05-06T12:49:42.606Z,11.00
2019-05-06T12:52:12.376Z,7.25
2019-05-06T12:54:42.997Z,10.40
2019-05-06T12:57:12.584Z,6.75
2019-05-06T12:59:42.498Z,10.48
2019-05-06T13:02:13.230Z,12.93
2019-05-06T13:04:51.744Z,13.75
2019-05-06T13:07:13.421Z,10.93
2019-05-06T13:09:44.982Z,10.38
2019-05-06T13:12:13.965Z,13.55
2019-05-06T13:14:43.062Z,14.70
2019-05-06T13:17:13.439Z,9.15
2019-05-06T13:19:42.865Z,8.40
2019-05-06T13:22:13.570Z,10.78
2019-05-06T13:24:42.284Z,8.98
2019-05-06T13:27:12.672Z,13.38
2019-05-06T13:29:42.906Z,8.78
2019-05-06T13:32:13.270Z,11.45
2019-05-06T13:34:42.435Z,9.43
2019-05-06T13:37:12.839Z,11.28
2019-05-06T13:39:43.530Z,8.28
2019-05-06T13:42:13.426Z,11.10
2019-05-06T13:44:42.555Z,11.40
2019-05-06T13:47:13.084Z,10.75
2019-05-06T13:49:52.353Z,12.68
2019-05-06T13:52:22.938Z,14.95
2019-05-06T13:54:52.989Z,10.58
2019-05-06T13:57:21.567Z,12.28
2019-05-06T13:59:52.963Z,12.53
2019-05-06T14:02:30.655Z,12.45
2019-05-06T14:04:59.495Z,11.10
2019-05-06T14:07:27.940Z,9.90
2019-05-06T14:09:56.356Z,8.10
2019-05-06T14:12:24.840Z,12.15
2019-05-06T14:14:53.267Z,8.95
2019-05-06T14:17:22.490Z,12.00
2019-05-06T14:19:53.134Z,10.98
2019-05-06T14:22:23.199Z,12.45
2019-05-06T14:25:00.066Z,13.55
2019-05-06T14:27:28.516Z,12.10
2019-05-06T14:29:58.596Z,12.50
2019-05-06T14:32:27.079Z,17.10
2019-05-06T14:34:55.613Z,13.22
2019-05-06T14:37:24.041Z,13.85
2019-05-06T14:39:59.229Z,7.72
2019-05-06T14:42:24.696Z,10.93
2019-05-06T14:44:53.120Z,7.30
2019-05-06T14:47:26.416Z,8.68
2019-05-06T14:49:54.856Z,12.63
2019-05-06T14:52:23.790Z,11.30
2019-05-06T14:54:53.996Z,9.15
2019-05-06T14:57:23.392Z,12.07
2019-05-06T14:59:55.224Z,8.33
2019-05-06T15:02:26.097Z,10.05
2019-05-06T15:04:54.016Z,12.10
2019-05-06T15:07:22.434Z,12.68
2019-05-06T15:10:07.868Z,9.03
2019-05-06T15:12:22.878Z,8.58
2019-05-06T15:14:58.203Z,12.95
2019-05-06T15:17:26.639Z,11.12
2019-05-06T15:19:55.065Z,8.58
2019-05-06T15:22:23.591Z,15.40
2019-05-06T15:24:53.599Z,10.40
2019-05-06T15:27:22.963Z,10.10
2019-05-06T15:29:54.356Z,10.63
2019-05-06T15:32:27.552Z,13.95
2019-05-06T15:34:57.591Z,9.48
2019-05-06T15:37:27.878Z,11.70
2019-05-06T15:39:56.298Z,8.95
2019-05-06T15:42:24.747Z,14.47
2019-05-06T15:44:53.550Z,11.10
2019-05-06T15:47:22.811Z,15.10
2019-05-06T15:49:52.652Z,14.58
2019-05-06T15:52:23.506Z,16.32
2019-05-06T15:54:52.490Z,16.42
2019-05-06T15:57:22.852Z,11.95
2019-05-06T15:59:52.989Z,11.97
2019-05-06T16:02:23.344Z,16.45
2019-05-06T16:04:51.996Z,16.27
2019-05-06T16:07:24.472Z,17.05
2019-05-06T16:09:55.006Z,23.00
2019-05-06T16:12:22.058Z,17.75
2019-05-06T16:14:52.995Z,18.10
2019-05-06T16:17:23.592Z,15.70
2019-05-06T16:19:51.034Z,12.90
2019-05-06T16:22:22.394Z,14.63
2019-05-06T16:25:09.833Z,15.90
2019-05-06T16:27:38.645Z,17.17
2019-05-06T16:30:09.411Z,16.70
2019-05-06T16:32:37.874Z,13.00
2019-05-06T16:35:06.863Z,18.60
2019-05-06T16:37:35.631Z,14.70
2019-05-06T16:40:05.109Z,16.23
2019-05-06T16:42:33.660Z,14.50
2019-05-06T16:45:06.880Z,12.35
2019-05-06T16:47:44.383Z,15.00
2019-05-06T16:50:16.943Z,13.83
2019-05-06T16:52:45.826Z,10.28
2019-05-06T16:55:17.849Z,12.82
2019-05-06T16:57:52.462Z,11.53
2019-05-06T17:00:23.162Z,10.32
2019-05-06T17:02:57.893Z,15.18
2019-05-06T17:05:37.290Z,12.55
2019-05-06T17:08:05.848Z,9.30
2019-05-06T17:10:34.603Z,14.07
2019-05-06T17:13:03.164Z,12.10
2019-05-06T17:15:32.600Z,12.40
2019-05-06T17:18:03.094Z,10.82
2019-05-06T17:20:32.560Z,10.60
2019-05-06T17:23:02.843Z,8.45
2019-05-06T17:25:32.918Z,10.05
2019-05-06T17:28:03.765Z,12.00
2019-05-06T17:30:46.528Z,14.65
2019-05-06T17:33:33.422Z,9.78
2019-05-06T17:36:03.037Z,16.60
2019-05-06T17:38:33.240Z,12.33
2019-05-06T17:41:02.999Z,11.55
2019-05-06T17:43:32.979Z,9.98
2019-05-06T17:46:04.901Z,11.90
2019-05-06T17:48:43.028Z,6.45
2019-05-06T17:51:19.371Z,16.12
2019-05-06T17:53:52.508Z,10.98
2019-05-06T17:56:22.265Z,9.90
2019-05-06T17:58:52.936Z,13.70
2019-05-06T18:01:33.124Z,8.85
2019-05-06T18:04:02.296Z,14.85
2019-05-06T18:06:32.995Z,18.25
2019-05-06T18:09:02.510Z,9.35
2019-05-06T18:11:33.227Z,7.92
2019-05-06T18:14:03.785Z,14.78
2019-05-06T18:16:33.451Z,8.83
2019-05-06T18:19:03.144Z,15.15
2019-05-06T18:21:31.887Z,14.20
2019-05-06T18:24:02.353Z,9.00
2019-05-06T18:26:33.355Z,12.33
2019-05-06T18:29:02.261Z,14.55
2019-05-06T18:31:32.900Z,14.68
2019-05-06T18:34:03.255Z,11.70
2019-05-06T18:36:31.135Z,12.88
2019-05-06T18:39:00.053Z,8.20
2019-05-06T18:41:29.420Z,14.90
2019-05-06T18:43:58.124Z,20.08
2019-05-06T18:46:26.739Z,14.55
2019-05-06T18:48:55.176Z,12.07
2019-05-06T18:51:23.603Z,13.13
2019-05-06T18:53:52.527Z,10.90
2019-05-06T18:56:22.366Z,15.70
2019-05-06T18:58:53.108Z,13.48
2019-05-06T19:01:23.277Z,8.05
2019-05-06T19:03:59.648Z,8.03
2019-05-06T19:06:28.126Z,11.03
2019-05-06T19:08:58.172Z,8.63
2019-05-06T19:11:26.658Z,12.73
2019-05-06T19:13:55.582Z,13.78
2019-05-06T19:16:24.008Z,12.13
2019-05-06T19:18:52.512Z,19.30
2019-05-06T19:21:27.388Z,12.45
2019-05-06T19:23:55.826Z,16.73
2019-05-06T19:26:24.532Z,12.95
2019-05-06T19:28:53.293Z,7.25
2019-05-06T19:31:22.917Z,11.33
2019-05-06T19:33:52.634Z,11.97
2019-05-06T19:36:23.558Z,15.68
2019-05-06T19:38:51.444Z,9.15
2019-05-06T19:41:22.216Z,10.63
2019-05-06T19:43:52.254Z,12.35
2019-05-06T19:46:20.537Z,13.38
2019-05-06T19:48:49.262Z,10.98
2019-05-06T19:51:17.727Z,12.53
2019-05-06T19:53:46.190Z,13.05
2019-05-06T19:56:14.630Z,11.43
2019-05-06T19:58:43.281Z,12.28
2019-05-06T20:01:11.933Z,12.13
2019-05-06T20:03:40.300Z,14.80
2019-05-06T20:06:28.485Z,16.10
2019-05-06T20:09:02.288Z,18.10
2019-05-06T20:11:33.195Z,15.90
2019-05-06T20:14:02.131Z,13.38
2019-05-06T20:16:32.300Z,18.30
2019-05-06T20:19:02.330Z,14.13
2019-05-06T20:21:32.843Z,14.80
2019-05-06T20:24:02.362Z,13.95
2019-05-06T20:26:32.410Z,11.60
2019-05-06T20:29:02.211Z,13.98
2019-05-06T20:31:32.164Z,14.58
2019-05-06T20:34:02.236Z,11.83
2019-05-06T20:36:33.032Z,10.68
2019-05-06T20:39:02.567Z,16.30
2019-05-06T20:41:32.900Z,14.55
2019-05-06T20:44:02.670Z,11.83
2019-05-06T20:46:32.344Z,15.48
2019-05-06T20:49:02.421Z,10.63
2019-05-06T20:51:32.792Z,15.10
2019-05-06T20:54:01.208Z,11.90
2019-05-06T20:56:29.682Z,13.43
2019-05-06T20:58:58.124Z,19.12
2019-05-06T21:01:26.751Z,12.10
2019-05-06T21:03:55.227Z,10.60
2019-05-06T21:06:24.933Z,6.75
2019-05-06T21:08:53.590Z,14.83
2019-05-06T21:11:28.832Z,15.32
2019-05-06T21:13:52.240Z,13.93
2019-05-06T21:16:22.525Z,7.55
2019-05-06T21:18:52.122Z,10.70
2019-05-06T21:21:20.710Z,11.03
2019-05-06T21:23:49.369Z,15.80
2019-05-06T21:26:17.872Z,7.47
2019-05-06T21:28:46.552Z,6.60
2019-05-06T21:31:15.406Z,14.25
2019-05-06T21:33:44.076Z,10.60
2019-05-06T21:36:12.536Z,15.45
2019-05-06T21:38:42.706Z,12.82
2019-05-06T21:41:12.359Z,7.85
2019-05-06T21:43:46.946Z,9.25
2019-05-06T21:46:12.988Z,10.90
2019-05-06T21:48:42.117Z,8.98
2019-05-06T21:51:12.286Z,9.03
2019-05-06T21:53:40.813Z,10.13
2019-05-06T21:56:09.606Z,8.83
2019-05-06T21:58:38.033Z,17.65
2019-05-06T22:01:08.254Z,12.78
2019-05-06T22:03:36.832Z,9.48
2019-05-06T22:06:05.352Z,12.93
2019-05-06T22:08:33.871Z,9.73
2019-05-06T22:11:03.081Z,13.65
2019-05-06T22:13:33.271Z,12.18
2019-05-06T22:16:04.855Z,11.33
2019-05-06T22:18:32.715Z,15.13
2019-05-06T22:21:17.851Z,10.80
2019-05-06T22:23:57.103Z,18.57
2019-05-06T22:26:27.148Z,10.30
2019-05-06T22:28:56.217Z,15.75
2019-05-06T22:31:26.988Z,13.75
2019-05-06T22:33:55.666Z,12.10
2019-05-06T22:36:24.312Z,12.03
2019-05-06T22:38:53.181Z,11.08
2019-05-06T22:41:23.307Z,16.42
2019-05-06T22:43:53.165Z,9.33
2019-05-06T22:46:23.448Z,16.48
2019-05-06T22:48:54.358Z,21.12
2019-05-06T22:51:22.971Z,13.53
2019-05-06T22:53:53.285Z,19.30
2019-05-06T22:56:23.005Z,20.05
2019-05-06T22:58:52.396Z,20.50
2019-05-06T23:01:32.466Z,11.60
2019-05-06T23:04:02.086Z,13.32
2019-05-06T23:06:32.839Z,14.15
2019-05-06T23:09:02.573Z,18.87
2019-05-06T23:11:32.765Z,17.27
2019-05-06T23:14:02.770Z,15.10
2019-05-06T23:16:33.079Z,13.78
2019-05-06T23:19:02.176Z,12.20
2019-05-06T23:21:30.655Z,15.63
2019-05-06T23:23:59.098Z,18.15
2019-05-06T23:26:27.663Z,11.73
2019-05-06T23:28:56.077Z,15.75
2019-05-06T23:31:24.770Z,17.05
2019-05-06T23:33:53.448Z,12.78
2019-05-06T23:36:22.906Z,14.10
2019-05-06T23:39:28.187Z,17.00
2019-05-06T23:42:33.050Z,15.28
2019-05-06T23:45:37.972Z,14.87
2019-05-06T23:48:43.040Z,11.48
2019-05-06T23:51:47.829Z,10.40
2019-05-06T23:54:52.841Z,12.28
2019-05-06T23:57:22.885Z,9.68
2019-05-06T23:59:51.877Z,13.32
